sensor_id;sensor_type;location;lat;lon;timestamp;pressure;altitude;pressure_sealevel;temperature;humidity
70971;BME280;58632;51.718;19.446;2024-01-27T00:00:55;99655.17;;;4.33;100.00
70971;BME280;58632;51.718;19.446;2024-01-27T00:03:41;99655.95;;;4.31;100.00
70971;BME280;58632;51.718;19.446;2024-01-27T00:06:06;99658.73;;;4.28;100.00
70971;BME280;58632;51.718;19.446;2024-01-27T00:08:31;99665.51;;;4.29;100.00
70971;BME280;58632;51.718;19.446;2024-01-27T00:10:57;99666.11;;;4.29;100.00
70971;BME280;58632;51.718;19.446;2024-01-27T00:13:22;99669.70;;;4.27;100.00
70971;BME280;58632;51.718;19.446;2024-01-27T00:15:48;99674.26;;;4.25;100.00
70971;BME280;58632;51.718;19.446;2024-01-27T00:18:14;99678.70;;;4.25;100.00
70971;BME280;58632;51.718;19.446;2024-01-27T00:20:40;99687.48;;;4.27;100.00
70971;BME280;58632;51.718;19.446;2024-01-27T00:23:05;99683.52;;;4.28;100.00
70971;BME280;58632;51.718;19.446;2024-01-27T00:25:31;99687.45;;;4.29;100.00
70971;BME280;58632;51.718;19.446;2024-01-27T00:27:57;99685.68;;;4.27;100.00
70971;BME280;58632;51.718;19.446;2024-01-27T00:30:22;99699.09;;;4.24;100.00
70971;BME280;58632;51.718;19.446;2024-01-27T00:32:47;99696.43;;;4.25;100.00
70971;BME280;58632;51.718;19.446;2024-01-27T00:35:13;99703.42;;;4.26;100.00
70971;BME280;58632;51.718;19.446;2024-01-27T00:37:40;99716.22;;;4.26;100.00
70971;BME280;58632;51.718;19.446;2024-01-27T00:40:09;99709.06;;;4.25;100.00
70971;BME280;58632;51.718;19.446;2024-01-27T00:42:35;99708.33;;;4.22;100.00
70971;BME280;58632;51.718;19.446;2024-01-27T00:45:00;99726.27;;;4.20;100.00
70971;BME280;58632;51.718;19.446;2024-01-27T00:47:25;99723.56;;;4.22;100.00
70971;BME280;58632;51.718;19.446;2024-01-27T00:49:51;99718.62;;;4.22;100.00
70971;BME280;58632;51.718;19.446;2024-01-27T00:52:16;99724.48;;;4.22;100.00
70971;BME280;58632;51.718;19.446;2024-01-27T00:54:41;99730.83;;;4.20;100.00
70971;BME280;58632;51.718;19.446;2024-01-27T00:57:07;99733.23;;;4.18;100.00
70971;BME280;58632;51.718;19.446;2024-01-27T00:59:32;99735.54;;;4.13;100.00
70971;BME280;58632;51.718;19.446;2024-01-27T01:01:58;99741.87;;;4.15;100.00
70971;BME280;58632;51.718;19.446;2024-01-27T01:04:23;99743.64;;;4.17;100.00
70971;BME280;58632;51.718;19.446;2024-01-27T01:06:49;99737.79;;;4.18;100.00
70971;BME280;58632;51.718;19.446;2024-01-27T01:09:14;99742.67;;;4.16;100.00
70971;BME280;58632;51.718;19.446;2024-01-27T01:11:40;99737.28;;;4.13;100.00
70971;BME280;58632;51.718;19.446;2024-01-27T01:14:09;99737.85;;;4.08;100.00
70971;BME280;58632;51.718;19.446;2024-01-27T01:16:34;99750.70;;;4.07;100.00
70971;BME280;58632;51.718;19.446;2024-01-27T01:19:00;99748.94;;;4.04;100.00
70971;BME280;58632;51.718;19.446;2024-01-27T01:21:25;99751.14;;;4.05;100.00
70971;BME280;58632;51.718;19.446;2024-01-27T01:23:52;99746.39;;;4.03;100.00
70971;BME280;58632;51.718;19.446;2024-01-27T01:26:17;99747.20;;;4.04;100.00
70971;BME280;58632;51.718;19.446;2024-01-27T01:28:43;99748.89;;;4.02;100.00
70971;BME280;58632;51.718;19.446;2024-01-27T01:31:08;99749.64;;;4.02;100.00
70971;BME280;58632;51.718;19.446;2024-01-27T01:33:34;99747.85;;;4.02;100.00
70971;BME280;58632;51.718;19.446;2024-01-27T01:35:59;99757.34;;;4.02;100.00
70971;BME280;58632;51.718;19.446;2024-01-27T01:38:25;99756.86;;;4.00;100.00
70971;BME280;58632;51.718;19.446;2024-01-27T01:40:50;99758.71;;;3.98;100.00
70971;BME280;58632;51.718;19.446;2024-01-27T01:43:16;99762.35;;;3.97;100.00
70971;BME280;58632;51.718;19.446;2024-01-27T01:45:41;99765.89;;;3.95;100.00
70971;BME280;58632;51.718;19.446;2024-01-27T01:48:07;99760.85;;;3.95;100.00
70971;BME280;58632;51.718;19.446;2024-01-27T01:50:32;99762.67;;;3.97;100.00
70971;BME280;58632;51.718;19.446;2024-01-27T01:52:58;99766.86;;;3.94;100.00
70971;BME280;58632;51.718;19.446;2024-01-27T01:55:23;99776.25;;;3.90;100.00
70971;BME280;58632;51.718;19.446;2024-01-27T01:57:49;99777.50;;;3.88;100.00
70971;BME280;58632;51.718;19.446;2024-01-27T02:00:14;99777.20;;;3.86;100.00
70971;BME280;58632;51.718;19.446;2024-01-27T02:02:40;99775.61;;;3.87;100.00
70971;BME280;58632;51.718;19.446;2024-01-27T02:05:05;99778.42;;;3.87;100.00
70971;BME280;58632;51.718;19.446;2024-01-27T02:07:31;99778.34;;;3.86;100.00
70971;BME280;58632;51.718;19.446;2024-01-27T02:09:56;99785.16;;;3.85;100.00
70971;BME280;58632;51.718;19.446;2024-01-27T02:12:21;99780.61;;;3.83;100.00
70971;BME280;58632;51.718;19.446;2024-01-27T02:14:47;99782.51;;;3.82;100.00
70971;BME280;58632;51.718;19.446;2024-01-27T02:17:12;99793.98;;;3.85;100.00
70971;BME280;58632;51.718;19.446;2024-01-27T02:19:38;99797.29;;;3.86;100.00
70971;BME280;58632;51.718;19.446;2024-01-27T02:22:03;99796.86;;;3.83;100.00
70971;BME280;58632;51.718;19.446;2024-01-27T02:24:28;99800.52;;;3.77;100.00
70971;BME280;58632;51.718;19.446;2024-01-27T02:26:54;99799.22;;;3.75;100.00
70971;BME280;58632;51.718;19.446;2024-01-27T02:29:19;99787.20;;;3.74;100.00
70971;BME280;58632;51.718;19.446;2024-01-27T02:31:45;99793.32;;;3.75;100.00
70971;BME280;58632;51.718;19.446;2024-01-27T02:34:10;99790.89;;;3.74;100.00
70971;BME280;58632;51.718;19.446;2024-01-27T02:36:36;99795.89;;;3.72;100.00
70971;BME280;58632;51.718;19.446;2024-01-27T02:39:01;99792.90;;;3.71;100.00
70971;BME280;58632;51.718;19.446;2024-01-27T02:41:27;99790.86;;;3.69;100.00
70971;BME280;58632;51.718;19.446;2024-01-27T02:43:54;99789.50;;;3.69;100.00
70971;BME280;58632;51.718;19.446;2024-01-27T02:46:20;99787.17;;;3.70;100.00
70971;BME280;58632;51.718;19.446;2024-01-27T02:48:45;99791.61;;;3.70;100.00
70971;BME280;58632;51.718;19.446;2024-01-27T02:51:11;99790.52;;;3.69;100.00
70971;BME280;58632;51.718;19.446;2024-01-27T02:53:36;99795.46;;;3.69;100.00
70971;BME280;58632;51.718;19.446;2024-01-27T02:56:02;99796.80;;;3.68;100.00
70971;BME280;58632;51.718;19.446;2024-01-27T02:58:27;99800.56;;;3.68;100.00
70971;BME280;58632;51.718;19.446;2024-01-27T03:00:53;99799.48;;;3.68;100.00
70971;BME280;58632;51.718;19.446;2024-01-27T03:03:18;99802.00;;;3.71;100.00
70971;BME280;58632;51.718;19.446;2024-01-27T03:05:44;99803.73;;;3.72;100.00
70971;BME280;58632;51.718;19.446;2024-01-27T03:08:11;99800.65;;;3.72;100.00
70971;BME280;58632;51.718;19.446;2024-01-27T03:10:36;99799.67;;;3.72;100.00
70971;BME280;58632;51.718;19.446;2024-01-27T03:13:02;99795.61;;;3.72;100.00
70971;BME280;58632;51.718;19.446;2024-01-27T03:15:28;99799.89;;;3.71;100.00
70971;BME280;58632;51.718;19.446;2024-01-27T03:17:53;99804.93;;;3.70;100.00
70971;BME280;58632;51.718;19.446;2024-01-27T03:20:18;99799.67;;;3.71;100.00
70971;BME280;58632;51.718;19.446;2024-01-27T03:22:44;99802.16;;;3.73;100.00
70971;BME280;58632;51.718;19.446;2024-01-27T03:25:10;99798.27;;;3.73;100.00
70971;BME280;58632;51.718;19.446;2024-01-27T03:27:38;99798.10;;;3.73;100.00
70971;BME280;58632;51.718;19.446;2024-01-27T03:30:04;99794.74;;;3.70;100.00
70971;BME280;58632;51.718;19.446;2024-01-27T03:32:29;99794.31;;;3.68;100.00
70971;BME280;58632;51.718;19.446;2024-01-27T03:34:58;99802.56;;;3.67;100.00
70971;BME280;58632;51.718;19.446;2024-01-27T03:37:23;99804.83;;;3.69;100.00
70971;BME280;58632;51.718;19.446;2024-01-27T03:39:51;99812.31;;;3.67;100.00
70971;BME280;58632;51.718;19.446;2024-01-27T03:42:16;99812.38;;;3.64;100.00
70971;BME280;58632;51.718;19.446;2024-01-27T03:44:41;99810.37;;;3.62;100.00
70971;BME280;58632;51.718;19.446;2024-01-27T03:47:07;99818.45;;;3.60;100.00
70971;BME280;58632;51.718;19.446;2024-01-27T03:49:32;99818.23;;;3.62;100.00
70971;BME280;58632;51.718;19.446;2024-01-27T03:51:58;99821.47;;;3.63;100.00
70971;BME280;58632;51.718;19.446;2024-01-27T03:54:23;99824.58;;;3.62;100.00
70971;BME280;58632;51.718;19.446;2024-01-27T03:56:48;99822.24;;;3.59;100.00
70971;BME280;58632;51.718;19.446;2024-01-27T03:59:14;99826.13;;;3.59;100.00
70971;BME280;58632;51.718;19.446;2024-01-27T04:01:39;99827.07;;;3.57;100.00
70971;BME280;58632;51.718;19.446;2024-01-27T04:04:05;99828.20;;;3.58;100.00
70971;BME280;58632;51.718;19.446;2024-01-27T04:06:35;99831.34;;;3.60;100.00
70971;BME280;58632;51.718;19.446;2024-01-27T04:09:00;99836.10;;;3.62;100.00
70971;BME280;58632;51.718;19.446;2024-01-27T04:11:26;99836.11;;;3.61;100.00
70971;BME280;58632;51.718;19.446;2024-01-27T04:13:51;99837.39;;;3.60;100.00
70971;BME280;58632;51.718;19.446;2024-01-27T04:16:17;99843.64;;;3.57;100.00
70971;BME280;58632;51.718;19.446;2024-01-27T04:18:42;99841.48;;;3.53;100.00
70971;BME280;58632;51.718;19.446;2024-01-27T04:21:10;99842.52;;;3.50;100.00
70971;BME280;58632;51.718;19.446;2024-01-27T04:23:35;99841.16;;;3.50;100.00
70971;BME280;58632;51.718;19.446;2024-01-27T04:26:00;99841.20;;;3.51;100.00
70971;BME280;58632;51.718;19.446;2024-01-27T04:28:26;99839.30;;;3.52;100.00
70971;BME280;58632;51.718;19.446;2024-01-27T04:30:51;99837.14;;;3.52;100.00
70971;BME280;58632;51.718;19.446;2024-01-27T04:33:17;99835.85;;;3.51;100.00
70971;BME280;58632;51.718;19.446;2024-01-27T04:35:42;99832.71;;;3.49;100.00
70971;BME280;58632;51.718;19.446;2024-01-27T04:38:10;99836.29;;;3.46;100.00
70971;BME280;58632;51.718;19.446;2024-01-27T04:40:35;99837.09;;;3.47;100.00
70971;BME280;58632;51.718;19.446;2024-01-27T04:43:01;99841.38;;;3.47;100.00
70971;BME280;58632;51.718;19.446;2024-01-27T04:45:27;99838.51;;;3.47;100.00
70971;BME280;58632;51.718;19.446;2024-01-27T04:47:53;99845.17;;;3.46;100.00
70971;BME280;58632;51.718;19.446;2024-01-27T04:50:19;99851.92;;;3.45;100.00
70971;BME280;58632;51.718;19.446;2024-01-27T04:52:44;99848.64;;;3.44;100.00
70971;BME280;58632;51.718;19.446;2024-01-27T04:55:10;99854.59;;;3.46;100.00
70971;BME280;58632;51.718;19.446;2024-01-27T04:57:35;99850.47;;;3.49;100.00
70971;BME280;58632;51.718;19.446;2024-01-27T05:00:00;99858.20;;;3.51;100.00
70971;BME280;58632;51.718;19.446;2024-01-27T05:02:26;99856.04;;;3.50;100.00
70971;BME280;58632;51.718;19.446;2024-01-27T05:04:52;99851.52;;;3.46;100.00
70971;BME280;58632;51.718;19.446;2024-01-27T05:07:17;99850.75;;;3.45;100.00
70971;BME280;58632;51.718;19.446;2024-01-27T05:09:42;99846.96;;;3.45;100.00
70971;BME280;58632;51.718;19.446;2024-01-27T05:12:08;99855.02;;;3.45;100.00
70971;BME280;58632;51.718;19.446;2024-01-27T05:14:34;99848.86;;;3.46;100.00
70971;BME280;58632;51.718;19.446;2024-01-27T05:16:59;99851.39;;;3.47;100.00
70971;BME280;58632;51.718;19.446;2024-01-27T05:19:24;99849.72;;;3.45;100.00
70971;BME280;58632;51.718;19.446;2024-01-27T05:21:50;99854.00;;;3.43;100.00
70971;BME280;58632;51.718;19.446;2024-01-27T05:24:15;99853.14;;;3.42;100.00
70971;BME280;58632;51.718;19.446;2024-01-27T05:26:41;99851.58;;;3.41;100.00
70971;BME280;58632;51.718;19.446;2024-01-27T05:29:06;99849.34;;;3.41;100.00
70971;BME280;58632;51.718;19.446;2024-01-27T05:31:31;99846.91;;;3.42;100.00
70971;BME280;58632;51.718;19.446;2024-01-27T05:33:57;99848.86;;;3.43;100.00
70971;BME280;58632;51.718;19.446;2024-01-27T05:36:22;99843.44;;;3.44;100.00
70971;BME280;58632;51.718;19.446;2024-01-27T05:38:48;99841.23;;;3.43;100.00
70971;BME280;58632;51.718;19.446;2024-01-27T05:41:13;99846.27;;;3.43;100.00
70971;BME280;58632;51.718;19.446;2024-01-27T05:43:39;99848.37;;;3.40;100.00
70971;BME280;58632;51.718;19.446;2024-01-27T05:46:04;99844.63;;;3.40;100.00
70971;BME280;58632;51.718;19.446;2024-01-27T05:48:30;99845.02;;;3.38;100.00
70971;BME280;58632;51.718;19.446;2024-01-27T05:50:56;99844.74;;;3.39;100.00
70971;BME280;58632;51.718;19.446;2024-01-27T05:53:22;99850.91;;;3.37;100.00
70971;BME280;58632;51.718;19.446;2024-01-27T05:55:52;99850.22;;;3.36;100.00
70971;BME280;58632;51.718;19.446;2024-01-27T05:58:18;99853.69;;;3.35;100.00
70971;BME280;58632;51.718;19.446;2024-01-27T06:00:46;99858.13;;;3.33;100.00
70971;BME280;58632;51.718;19.446;2024-01-27T06:03:12;99855.75;;;3.29;100.00
70971;BME280;58632;51.718;19.446;2024-01-27T06:05:43;99863.60;;;3.26;100.00
70971;BME280;58632;51.718;19.446;2024-01-27T06:08:09;99864.64;;;3.19;100.00
70971;BME280;58632;51.718;19.446;2024-01-27T06:10:34;99861.55;;;3.16;100.00
70971;BME280;58632;51.718;19.446;2024-01-27T06:13:02;99857.75;;;3.09;100.00
70971;BME280;58632;51.718;19.446;2024-01-27T06:15:27;99863.87;;;3.05;100.00
70971;BME280;58632;51.718;19.446;2024-01-27T06:17:53;99858.84;;;3.02;100.00
70971;BME280;58632;51.718;19.446;2024-01-27T06:20:18;99854.73;;;2.99;100.00
70971;BME280;58632;51.718;19.446;2024-01-27T06:22:44;99858.55;;;2.99;100.00
70971;BME280;58632;51.718;19.446;2024-01-27T06:25:09;99857.80;;;2.95;100.00
70971;BME280;58632;51.718;19.446;2024-01-27T06:27:36;99854.83;;;2.93;100.00
70971;BME280;58632;51.718;19.446;2024-01-27T06:30:01;99861.05;;;2.95;100.00
70971;BME280;58632;51.718;19.446;2024-01-27T06:32:26;99857.05;;;2.97;100.00
70971;BME280;58632;51.718;19.446;2024-01-27T06:34:52;99867.81;;;2.99;100.00
70971;BME280;58632;51.718;19.446;2024-01-27T06:37:17;99860.30;;;2.99;100.00
70971;BME280;58632;51.718;19.446;2024-01-27T06:39:43;99856.08;;;3.00;100.00
70971;BME280;58632;51.718;19.446;2024-01-27T06:42:08;99858.99;;;2.99;100.00
70971;BME280;58632;51.718;19.446;2024-01-27T06:44:33;99860.73;;;3.00;100.00
70971;BME280;58632;51.718;19.446;2024-01-27T06:46:59;99857.05;;;2.98;100.00
70971;BME280;58632;51.718;19.446;2024-01-27T06:49:25;99861.10;;;2.99;100.00
70971;BME280;58632;51.718;19.446;2024-01-27T06:51:50;99854.98;;;3.02;100.00
70971;BME280;58632;51.718;19.446;2024-01-27T06:54:15;99856.84;;;3.03;100.00
70971;BME280;58632;51.718;19.446;2024-01-27T06:56:41;99858.03;;;3.03;100.00
70971;BME280;58632;51.718;19.446;2024-01-27T06:59:07;99855.60;;;3.04;100.00
70971;BME280;58632;51.718;19.446;2024-01-27T07:01:32;99852.17;;;3.04;100.00
70971;BME280;58632;51.718;19.446;2024-01-27T07:03:57;99853.36;;;3.04;100.00
70971;BME280;58632;51.718;19.446;2024-01-27T07:06:23;99860.67;;;3.04;100.00
70971;BME280;58632;51.718;19.446;2024-01-27T07:08:48;99857.81;;;3.05;100.00
70971;BME280;58632;51.718;19.446;2024-01-27T07:11:14;99861.16;;;3.07;100.00
70971;BME280;58632;51.718;19.446;2024-01-27T07:13:40;99865.61;;;3.07;100.00
70971;BME280;58632;51.718;19.446;2024-01-27T07:16:06;99869.66;;;3.04;100.00
70971;BME280;58632;51.718;19.446;2024-01-27T07:18:31;99874.09;;;3.01;100.00
70971;BME280;58632;51.718;19.446;2024-01-27T07:20:57;99870.14;;;2.97;100.00
70971;BME280;58632;51.718;19.446;2024-01-27T07:23:24;99872.58;;;2.98;100.00
70971;BME280;58632;51.718;19.446;2024-01-27T07:25:50;99870.84;;;3.00;100.00
70971;BME280;58632;51.718;19.446;2024-01-27T07:28:15;99871.87;;;2.98;100.00
70971;BME280;58632;51.718;19.446;2024-01-27T07:30:43;99867.71;;;2.96;100.00
70971;BME280;58632;51.718;19.446;2024-01-27T07:33:09;99871.66;;;2.95;100.00
70971;BME280;58632;51.718;19.446;2024-01-27T07:35:34;99868.02;;;2.96;100.00
70971;BME280;58632;51.718;19.446;2024-01-27T07:37:59;99880.85;;;2.97;100.00
70971;BME280;58632;51.718;19.446;2024-01-27T07:40:25;99879.07;;;2.97;100.00
70971;BME280;58632;51.718;19.446;2024-01-27T07:42:50;99881.23;;;2.97;100.00
70971;BME280;58632;51.718;19.446;2024-01-27T07:45:16;99885.93;;;2.98;100.00
70971;BME280;58632;51.718;19.446;2024-01-27T07:47:41;99884.91;;;3.02;100.00
70971;BME280;58632;51.718;19.446;2024-01-27T07:50:07;99888.17;;;3.07;100.00
70971;BME280;58632;51.718;19.446;2024-01-27T07:52:34;99887.52;;;3.08;100.00
70971;BME280;58632;51.718;19.446;2024-01-27T07:55:00;99890.16;;;3.06;100.00
70971;BME280;58632;51.718;19.446;2024-01-27T07:57:26;99895.09;;;3.06;100.00
70971;BME280;58632;51.718;19.446;2024-01-27T07:59:51;99898.17;;;3.06;100.00
70971;BME280;58632;51.718;19.446;2024-01-27T08:02:17;99895.14;;;3.04;100.00
70971;BME280;58632;51.718;19.446;2024-01-27T08:04:42;99903.09;;;3.02;100.00
70971;BME280;58632;51.718;19.446;2024-01-27T08:07:08;99900.13;;;2.97;100.00
70971;BME280;58632;51.718;19.446;2024-01-27T08:09:37;99902.92;;;2.91;100.00
70971;BME280;58632;51.718;19.446;2024-01-27T08:12:06;99907.02;;;2.85;100.00
70971;BME280;58632;51.718;19.446;2024-01-27T08:14:32;99912.36;;;2.81;100.00
70971;BME280;58632;51.718;19.446;2024-01-27T08:16:59;99912.16;;;2.81;100.00
70971;BME280;58632;51.718;19.446;2024-01-27T08:19:24;99912.64;;;2.79;100.00
70971;BME280;58632;51.718;19.446;2024-01-27T08:21:49;99917.48;;;2.73;100.00
70971;BME280;58632;51.718;19.446;2024-01-27T08:24:15;99922.19;;;2.70;100.00
70971;BME280;58632;51.718;19.446;2024-01-27T08:26:41;99919.41;;;2.64;100.00
70971;BME280;58632;51.718;19.446;2024-01-27T08:29:08;99926.77;;;2.64;100.00
70971;BME280;58632;51.718;19.446;2024-01-27T08:31:33;99929.84;;;2.63;100.00
70971;BME280;58632;51.718;19.446;2024-01-27T08:33:58;99930.82;;;2.63;100.00
70971;BME280;58632;51.718;19.446;2024-01-27T08:36:24;99931.30;;;2.61;100.00
70971;BME280;58632;51.718;19.446;2024-01-27T08:38:50;99936.80;;;2.59;100.00
70971;BME280;58632;51.718;19.446;2024-01-27T08:41:15;99936.53;;;2.58;100.00
70971;BME280;58632;51.718;19.446;2024-01-27T08:43:41;99942.48;;;2.56;100.00
70971;BME280;58632;51.718;19.446;2024-01-27T08:46:06;99944.58;;;2.55;100.00
70971;BME280;58632;51.718;19.446;2024-01-27T08:48:36;99953.58;;;2.59;100.00
70971;BME280;58632;51.718;19.446;2024-01-27T08:51:01;99952.71;;;2.58;100.00
70971;BME280;58632;51.718;19.446;2024-01-27T08:53:27;99955.39;;;2.55;100.00
70971;BME280;58632;51.718;19.446;2024-01-27T08:55:52;99956.63;;;2.53;100.00
70971;BME280;58632;51.718;19.446;2024-01-27T08:58:20;99956.20;;;2.51;100.00
70971;BME280;58632;51.718;19.446;2024-01-27T09:00:46;99958.24;;;2.51;100.00
70971;BME280;58632;51.718;19.446;2024-01-27T09:03:11;99969.60;;;2.52;100.00
70971;BME280;58632;51.718;19.446;2024-01-27T09:05:37;99975.17;;;2.51;100.00
70971;BME280;58632;51.718;19.446;2024-01-27T09:08:04;99975.65;;;2.49;100.00
70971;BME280;58632;51.718;19.446;2024-01-27T09:10:29;99980.83;;;2.48;100.00
70971;BME280;58632;51.718;19.446;2024-01-27T09:12:55;99986.55;;;2.45;100.00
70971;BME280;58632;51.718;19.446;2024-01-27T09:15:20;99991.29;;;2.42;100.00
70971;BME280;58632;51.718;19.446;2024-01-27T09:17:46;99988.80;;;2.41;100.00
70971;BME280;58632;51.718;19.446;2024-01-27T09:20:13;99991.56;;;2.42;100.00
70971;BME280;58632;51.718;19.446;2024-01-27T09:22:38;99998.20;;;2.41;100.00
70971;BME280;58632;51.718;19.446;2024-01-27T09:25:04;99997.28;;;2.42;100.00
70971;BME280;58632;51.718;19.446;2024-01-27T09:27:30;100002.04;;;2.43;100.00
70971;BME280;58632;51.718;19.446;2024-01-27T09:29:55;100004.80;;;2.41;100.00
70971;BME280;58632;51.718;19.446;2024-01-27T09:32:21;100005.30;;;2.42;100.00
70971;BME280;58632;51.718;19.446;2024-01-27T09:34:46;100005.23;;;2.42;100.00
70971;BME280;58632;51.718;19.446;2024-01-27T09:37:12;100007.80;;;2.46;100.00
70971;BME280;58632;51.718;19.446;2024-01-27T09:39:38;100007.76;;;2.51;100.00
70971;BME280;58632;51.718;19.446;2024-01-27T09:42:04;100004.88;;;2.59;100.00
70971;BME280;58632;51.718;19.446;2024-01-27T09:44:31;100010.33;;;2.69;100.00
70971;BME280;58632;51.718;19.446;2024-01-27T09:46:57;100007.80;;;2.72;100.00
70971;BME280;58632;51.718;19.446;2024-01-27T09:49:22;100017.42;;;2.71;100.00
70971;BME280;58632;51.718;19.446;2024-01-27T09:51:49;100020.05;;;2.66;100.00
70971;BME280;58632;51.718;19.446;2024-01-27T09:54:14;100024.59;;;2.65;100.00
70971;BME280;58632;51.718;19.446;2024-01-27T09:56:40;100024.02;;;2.68;100.00
70971;BME280;58632;51.718;19.446;2024-01-27T09:59:05;100029.02;;;2.74;100.00
70971;BME280;58632;51.718;19.446;2024-01-27T10:01:31;100029.84;;;2.81;100.00
70971;BME280;58632;51.718;19.446;2024-01-27T10:03:58;100030.52;;;2.87;100.00
70971;BME280;58632;51.718;19.446;2024-01-27T10:06:24;100032.91;;;2.88;100.00
70971;BME280;58632;51.718;19.446;2024-01-27T10:08:54;100042.33;;;2.88;100.00
70971;BME280;58632;51.718;19.446;2024-01-27T10:11:20;100047.30;;;2.87;100.00
70971;BME280;58632;51.718;19.446;2024-01-27T10:13:52;100049.85;;;2.90;100.00
70971;BME280;58632;51.718;19.446;2024-01-27T10:16:18;100052.67;;;2.94;100.00
70971;BME280;58632;51.718;19.446;2024-01-27T10:18:46;100055.28;;;2.96;100.00
70971;BME280;58632;51.718;19.446;2024-01-27T10:21:17;100059.78;;;2.99;100.00
70971;BME280;58632;51.718;19.446;2024-01-27T10:23:43;100063.30;;;3.01;100.00
70971;BME280;58632;51.718;19.446;2024-01-27T10:26:09;100062.45;;;3.04;100.00
70971;BME280;58632;51.718;19.446;2024-01-27T10:28:35;100067.04;;;3.00;100.00
70971;BME280;58632;51.718;19.446;2024-01-27T10:31:10;100064.54;;;2.99;100.00
70971;BME280;58632;51.718;19.446;2024-01-27T10:33:35;100072.66;;;3.00;100.00
70971;BME280;58632;51.718;19.446;2024-01-27T10:36:01;100076.84;;;3.04;100.00
70971;BME280;58632;51.718;19.446;2024-01-27T10:38:37;100078.52;;;3.05;100.00
70971;BME280;58632;51.718;19.446;2024-01-27T10:41:04;100084.95;;;3.05;100.00
70971;BME280;58632;51.718;19.446;2024-01-27T10:43:32;100085.98;;;3.03;100.00
70971;BME280;58632;51.718;19.446;2024-01-27T10:45:59;100089.13;;;3.02;100.00
70971;BME280;58632;51.718;19.446;2024-01-27T10:48:24;100097.33;;;2.99;100.00
70971;BME280;58632;51.718;19.446;2024-01-27T10:50:51;100099.98;;;2.98;100.00
70971;BME280;58632;51.718;19.446;2024-01-27T10:53:23;100101.73;;;3.01;100.00
70971;BME280;58632;51.718;19.446;2024-01-27T10:55:50;100101.89;;;3.04;100.00
70971;BME280;58632;51.718;19.446;2024-01-27T10:58:16;100103.09;;;3.04;100.00
70971;BME280;58632;51.718;19.446;2024-01-27T11:00:43;100104.35;;;3.06;100.00
70971;BME280;58632;51.718;19.446;2024-01-27T11:03:10;100111.88;;;3.08;100.00
70971;BME280;58632;51.718;19.446;2024-01-27T11:05:36;100118.97;;;3.10;100.00
70971;BME280;58632;51.718;19.446;2024-01-27T11:08:04;100119.68;;;3.11;100.00
70971;BME280;58632;51.718;19.446;2024-01-27T11:10:31;100123.48;;;3.15;100.00
70971;BME280;58632;51.718;19.446;2024-01-27T11:13:02;100135.02;;;3.15;100.00
70971;BME280;58632;51.718;19.446;2024-01-27T11:15:28;100132.20;;;3.15;100.00
70971;BME280;58632;51.718;19.446;2024-01-27T11:17:56;100139.72;;;3.16;100.00
70971;BME280;58632;51.718;19.446;2024-01-27T11:20:23;100140.48;;;3.15;100.00
70971;BME280;58632;51.718;19.446;2024-01-27T11:22:48;100142.75;;;3.15;100.00
70971;BME280;58632;51.718;19.446;2024-01-27T11:25:15;100142.31;;;3.13;100.00
70971;BME280;58632;51.718;19.446;2024-01-27T11:27:42;100150.16;;;3.14;100.00
70971;BME280;58632;51.718;19.446;2024-01-27T11:30:30;100157.04;;;3.13;100.00
70971;BME280;58632;51.718;19.446;2024-01-27T11:32:57;100149.08;;;3.16;100.00
70971;BME280;58632;51.718;19.446;2024-01-27T11:35:23;100157.70;;;3.15;100.00
70971;BME280;58632;51.718;19.446;2024-01-27T11:37:49;100166.73;;;3.15;100.00
70971;BME280;58632;51.718;19.446;2024-01-27T11:40:14;100170.46;;;3.16;100.00
70971;BME280;58632;51.718;19.446;2024-01-27T11:42:41;100170.54;;;3.17;100.00
70971;BME280;58632;51.718;19.446;2024-01-27T11:45:07;100168.58;;;3.17;100.00
70971;BME280;58632;51.718;19.446;2024-01-27T11:47:33;100179.20;;;3.18;100.00
70971;BME280;58632;51.718;19.446;2024-01-27T11:49:58;100184.02;;;3.18;100.00
70971;BME280;58632;51.718;19.446;2024-01-27T11:52:24;100178.91;;;3.17;100.00
70971;BME280;58632;51.718;19.446;2024-01-27T11:54:53;100193.23;;;3.21;100.00
70971;BME280;58632;51.718;19.446;2024-01-27T11:57:19;100198.98;;;3.25;100.00
70971;BME280;58632;51.718;19.446;2024-01-27T11:59:44;100198.73;;;3.27;100.00
70971;BME280;58632;51.718;19.446;2024-01-27T12:02:10;100200.98;;;3.31;100.00
70971;BME280;58632;51.718;19.446;2024-01-27T12:04:36;100212.84;;;3.33;100.00
70971;BME280;58632;51.718;19.446;2024-01-27T12:07:01;100221.16;;;3.33;100.00
70971;BME280;58632;51.718;19.446;2024-01-27T12:09:27;100224.05;;;3.35;100.00
70971;BME280;58632;51.718;19.446;2024-01-27T12:11:52;100225.45;;;3.35;100.00
70971;BME280;58632;51.718;19.446;2024-01-27T12:14:18;100233.14;;;3.35;100.00
70971;BME280;58632;51.718;19.446;2024-01-27T12:16:44;100237.00;;;3.36;100.00
70971;BME280;58632;51.718;19.446;2024-01-27T12:19:10;100244.46;;;3.35;100.00
70971;BME280;58632;51.718;19.446;2024-01-27T12:21:36;100253.98;;;3.35;100.00
70971;BME280;58632;51.718;19.446;2024-01-27T12:24:02;100256.09;;;3.35;100.00
70971;BME280;58632;51.718;19.446;2024-01-27T12:26:28;100261.82;;;3.33;100.00
70971;BME280;58632;51.718;19.446;2024-01-27T12:28:54;100271.02;;;3.30;100.00
70971;BME280;58632;51.718;19.446;2024-01-27T12:31:23;100270.45;;;3.27;100.00
70971;BME280;58632;51.718;19.446;2024-01-27T12:33:52;100271.05;;;3.26;100.00
70971;BME280;58632;51.718;19.446;2024-01-27T12:36:19;100278.11;;;3.22;100.00
70971;BME280;58632;51.718;19.446;2024-01-27T12:41:20;100287.15;;;3.23;100.00
70971;BME280;58632;51.718;19.446;2024-01-27T12:43:46;100292.13;;;3.22;100.00